sensor_id;sensor_type;location;lat;lon;timestamp;P1;durP1;ratioP1;P2;durP2;ratioP2
68608;SDS011;55581;46.718;7.690;2023-04-25T00:01:35;6.97;;;1.20;;
68608;SDS011;55581;46.718;7.690;2023-04-25T00:04:02;2.47;;;0.47;;
68608;SDS011;55581;46.718;7.690;2023-04-25T00:06:28;3.50;;;0.77;;
68608;SDS011;55581;46.718;7.690;2023-04-25T00:08:57;7.43;;;0.90;;
68608;SDS011;55581;46.718;7.690;2023-04-25T00:11:22;5.30;;;0.90;;
68608;SDS011;55581;46.718;7.690;2023-04-25T00:13:50;3.65;;;0.88;;
68608;SDS011;55581;46.718;7.690;2023-04-25T00:16:16;3.43;;;1.10;;
68608;SDS011;55581;46.718;7.690;2023-04-25T00:18:42;4.03;;;0.80;;
68608;SDS011;55581;46.718;7.690;2023-04-25T00:21:16;6.22;;;1.10;;
68608;SDS011;55581;46.718;7.690;2023-04-25T00:23:44;4.40;;;0.85;;
68608;SDS011;55581;46.718;7.690;2023-04-25T00:26:11;3.97;;;1.10;;
68608;SDS011;55581;46.718;7.690;2023-04-25T00:28:37;7.60;;;1.10;;
68608;SDS011;55581;46.718;7.690;2023-04-25T00:31:02;7.82;;;1.27;;
68608;SDS011;55581;46.718;7.690;2023-04-25T00:33:28;4.90;;;0.90;;
68608;SDS011;55581;46.718;7.690;2023-04-25T00:35:54;6.60;;;1.70;;
68608;SDS011;55581;46.718;7.690;2023-04-25T00:38:20;5.28;;;1.05;;
68608;SDS011;55581;46.718;7.690;2023-04-25T00:40:45;5.80;;;1.27;;
68608;SDS011;55581;46.718;7.690;2023-04-25T00:43:10;4.33;;;1.17;;
68608;SDS011;55581;46.718;7.690;2023-04-25T00:45:37;6.10;;;1.30;;
68608;SDS011;55581;46.718;7.690;2023-04-25T00:48:04;6.18;;;1.45;;
68608;SDS011;55581;46.718;7.690;2023-04-25T00:50:29;3.70;;;1.43;;
68608;SDS011;55581;46.718;7.690;2023-04-25T00:52:55;8.40;;;1.03;;
68608;SDS011;55581;46.718;7.690;2023-04-25T00:55:23;4.13;;;1.17;;
68608;SDS011;55581;46.718;7.690;2023-04-25T00:57:49;6.47;;;1.83;;
68608;SDS011;55581;46.718;7.690;2023-04-25T01:00:15;5.07;;;1.13;;
68608;SDS011;55581;46.718;7.690;2023-04-25T01:02:43;7.00;;;1.20;;
68608;SDS011;55581;46.718;7.690;2023-04-25T01:05:09;5.32;;;0.88;;
68608;SDS011;55581;46.718;7.690;2023-04-25T01:07:35;6.95;;;1.10;;
68608;SDS011;55581;46.718;7.690;2023-04-25T01:10:01;16.97;;;1.53;;
68608;SDS011;55581;46.718;7.690;2023-04-25T01:12:27;7.60;;;0.90;;
68608;SDS011;55581;46.718;7.690;2023-04-25T01:14:53;3.63;;;1.00;;
68608;SDS011;55581;46.718;7.690;2023-04-25T01:17:19;5.32;;;1.08;;
68608;SDS011;55581;46.718;7.690;2023-04-25T01:19:46;4.77;;;0.97;;
68608;SDS011;55581;46.718;7.690;2023-04-25T01:22:13;5.70;;;0.80;;
68608;SDS011;55581;46.718;7.690;2023-04-25T01:24:39;5.03;;;1.20;;
68608;SDS011;55581;46.718;7.690;2023-04-25T01:27:05;6.57;;;1.20;;
68608;SDS011;55581;46.718;7.690;2023-04-25T01:29:34;6.47;;;1.17;;
68608;SDS011;55581;46.718;7.690;2023-04-25T01:31:59;3.17;;;0.88;;
68608;SDS011;55581;46.718;7.690;2023-04-25T01:34:28;5.93;;;0.90;;
68608;SDS011;55581;46.718;7.690;2023-04-25T01:36:53;8.10;;;1.03;;
68608;SDS011;55581;46.718;7.690;2023-04-25T01:39:21;4.32;;;0.73;;
68608;SDS011;55581;46.718;7.690;2023-04-25T01:41:47;6.00;;;1.60;;
68608;SDS011;55581;46.718;7.690;2023-04-25T01:44:15;9.60;;;1.60;;
68608;SDS011;55581;46.718;7.690;2023-04-25T01:46:40;6.18;;;1.60;;
68608;SDS011;55581;46.718;7.690;2023-04-25T01:49:06;8.63;;;2.10;;
68608;SDS011;55581;46.718;7.690;2023-04-25T01:51:32;5.65;;;1.25;;
68608;SDS011;55581;46.718;7.690;2023-04-25T01:53:57;9.77;;;1.37;;
68608;SDS011;55581;46.718;7.690;2023-04-25T01:56:27;4.55;;;1.40;;
68608;SDS011;55581;46.718;7.690;2023-04-25T01:58:55;5.50;;;1.27;;
68608;SDS011;55581;46.718;7.690;2023-04-25T02:01:20;5.15;;;0.88;;
68608;SDS011;55581;46.718;7.690;2023-04-25T02:03:46;6.23;;;1.20;;
68608;SDS011;55581;46.718;7.690;2023-04-25T02:06:11;5.53;;;1.10;;
68608;SDS011;55581;46.718;7.690;2023-04-25T02:08:36;6.17;;;1.30;;
68608;SDS011;55581;46.718;7.690;2023-04-25T02:11:04;5.10;;;1.02;;
68608;SDS011;55581;46.718;7.690;2023-04-25T02:13:30;4.47;;;1.10;;
68608;SDS011;55581;46.718;7.690;2023-04-25T02:15:55;5.45;;;1.15;;
68608;SDS011;55581;46.718;7.690;2023-04-25T02:18:23;6.47;;;1.13;;
68608;SDS011;55581;46.718;7.690;2023-04-25T02:20:53;3.83;;;0.90;;
68608;SDS011;55581;46.718;7.690;2023-04-25T02:23:18;3.97;;;0.90;;
68608;SDS011;55581;46.718;7.690;2023-04-25T02:25:48;6.13;;;1.50;;
68608;SDS011;55581;46.718;7.690;2023-04-25T02:28:14;6.00;;;1.50;;
68608;SDS011;55581;46.718;7.690;2023-04-25T02:30:39;6.77;;;1.10;;
68608;SDS011;55581;46.718;7.690;2023-04-25T02:33:05;4.17;;;1.10;;
68608;SDS011;55581;46.718;7.690;2023-04-25T02:35:30;3.10;;;0.70;;
68608;SDS011;55581;46.718;7.690;2023-04-25T02:37:58;4.03;;;0.90;;
68608;SDS011;55581;46.718;7.690;2023-04-25T02:40:23;2.92;;;0.95;;
68608;SDS011;55581;46.718;7.690;2023-04-25T02:42:49;3.53;;;0.60;;
68608;SDS011;55581;46.718;7.690;2023-04-25T02:45:14;5.70;;;0.70;;
68608;SDS011;55581;46.718;7.690;2023-04-25T02:47:40;5.57;;;0.80;;
68608;SDS011;55581;46.718;7.690;2023-04-25T02:50:05;5.07;;;0.80;;
68608;SDS011;55581;46.718;7.690;2023-04-25T02:52:31;4.87;;;1.00;;
68608;SDS011;55581;46.718;7.690;2023-04-25T02:54:57;5.83;;;0.93;;
68608;SDS011;55581;46.718;7.690;2023-04-25T02:57:22;4.57;;;0.67;;
68608;SDS011;55581;46.718;7.690;2023-04-25T02:59:48;3.90;;;1.00;;
68608;SDS011;55581;46.718;7.690;2023-04-25T03:02:13;5.38;;;1.17;;
68608;SDS011;55581;46.718;7.690;2023-04-25T03:04:38;2.20;;;0.50;;
68608;SDS011;55581;46.718;7.690;2023-04-25T03:07:04;3.33;;;0.77;;
68608;SDS011;55581;46.718;7.690;2023-04-25T03:09:30;3.10;;;0.52;;
68608;SDS011;55581;46.718;7.690;2023-04-25T03:11:55;3.37;;;0.63;;
68608;SDS011;55581;46.718;7.690;2023-04-25T03:14:20;4.53;;;0.70;;
68608;SDS011;55581;46.718;7.690;2023-04-25T03:16:46;2.40;;;0.50;;
68608;SDS011;55581;46.718;7.690;2023-04-25T03:19:11;5.13;;;0.50;;
68608;SDS011;55581;46.718;7.690;2023-04-25T03:21:37;2.33;;;0.40;;
68608;SDS011;55581;46.718;7.690;2023-04-25T03:24:03;2.40;;;0.40;;
68608;SDS011;55581;46.718;7.690;2023-04-25T03:26:29;2.58;;;0.40;;
68608;SDS011;55581;46.718;7.690;2023-04-25T03:28:54;4.53;;;0.40;;
68608;SDS011;55581;46.718;7.690;2023-04-25T03:31:20;1.33;;;0.20;;
68608;SDS011;55581;46.718;7.690;2023-04-25T03:33:46;5.25;;;0.80;;
68608;SDS011;55581;46.718;7.690;2023-04-25T03:36:11;4.30;;;0.60;;
68608;SDS011;55581;46.718;7.690;2023-04-25T03:38:36;2.10;;;0.30;;
68608;SDS011;55581;46.718;7.690;2023-04-25T03:41:06;4.88;;;0.50;;
68608;SDS011;55581;46.718;7.690;2023-04-25T03:43:31;3.97;;;0.50;;
68608;SDS011;55581;46.718;7.690;2023-04-25T03:45:56;3.00;;;0.67;;
68608;SDS011;55581;46.718;7.690;2023-04-25T03:48:22;2.65;;;0.50;;
68608;SDS011;55581;46.718;7.690;2023-04-25T03:50:49;4.57;;;0.65;;
68608;SDS011;55581;46.718;7.690;2023-04-25T03:53:15;6.07;;;0.83;;
68608;SDS011;55581;46.718;7.690;2023-04-25T03:55:43;5.07;;;0.80;;
68608;SDS011;55581;46.718;7.690;2023-04-25T03:58:08;3.10;;;0.53;;
68608;SDS011;55581;46.718;7.690;2023-04-25T04:00:34;6.67;;;0.90;;
68608;SDS011;55581;46.718;7.690;2023-04-25T04:03:03;4.75;;;0.70;;
68608;SDS011;55581;46.718;7.690;2023-04-25T04:05:28;3.20;;;0.60;;
68608;SDS011;55581;46.718;7.690;2023-04-25T04:07:54;4.53;;;0.60;;
68608;SDS011;55581;46.718;7.690;2023-04-25T04:10:22;5.07;;;0.50;;
68608;SDS011;55581;46.718;7.690;2023-04-25T04:12:47;2.90;;;0.63;;
68608;SDS011;55581;46.718;7.690;2023-04-25T04:15:13;5.33;;;0.40;;
68608;SDS011;55581;46.718;7.690;2023-04-25T04:17:38;2.08;;;0.40;;
68608;SDS011;55581;46.718;7.690;2023-04-25T04:20:04;2.97;;;0.40;;
68608;SDS011;55581;46.718;7.690;2023-04-25T04:22:31;2.75;;;0.40;;
68608;SDS011;55581;46.718;7.690;2023-04-25T04:24:56;2.90;;;0.60;;
68608;SDS011;55581;46.718;7.690;2023-04-25T04:27:22;5.33;;;0.60;;
68608;SDS011;55581;46.718;7.690;2023-04-25T04:29:48;5.00;;;1.57;;
68608;SDS011;55581;46.718;7.690;2023-04-25T04:32:14;4.78;;;0.98;;
68608;SDS011;55581;46.718;7.690;2023-04-25T04:34:40;2.60;;;0.60;;
68608;SDS011;55581;46.718;7.690;2023-04-25T04:37:06;4.22;;;1.02;;
68608;SDS011;55581;46.718;7.690;2023-04-25T04:39:34;8.95;;;1.80;;
68608;SDS011;55581;46.718;7.690;2023-04-25T04:42:00;4.57;;;0.93;;
68608;SDS011;55581;46.718;7.690;2023-04-25T04:44:28;3.53;;;1.27;;
68608;SDS011;55581;46.718;7.690;2023-04-25T04:46:57;4.97;;;0.70;;
68608;SDS011;55581;46.718;7.690;2023-04-25T04:49:23;2.57;;;0.43;;
68608;SDS011;55581;46.718;7.690;2023-04-25T04:51:49;2.92;;;0.57;;
68608;SDS011;55581;46.718;7.690;2023-04-25T04:54:14;3.33;;;0.93;;
68608;SDS011;55581;46.718;7.690;2023-04-25T04:56:40;2.70;;;1.00;;
68608;SDS011;55581;46.718;7.690;2023-04-25T04:59:06;3.92;;;0.57;;
68608;SDS011;55581;46.718;7.690;2023-04-25T05:01:32;2.53;;;0.50;;
68608;SDS011;55581;46.718;7.690;2023-04-25T05:03:57;3.17;;;0.47;;
68608;SDS011;55581;46.718;7.690;2023-04-25T05:06:26;2.63;;;0.43;;
68608;SDS011;55581;46.718;7.690;2023-04-25T05:08:54;2.27;;;0.60;;
68608;SDS011;55581;46.718;7.690;2023-04-25T05:11:22;2.80;;;0.60;;
68608;SDS011;55581;46.718;7.690;2023-04-25T05:13:49;4.80;;;0.65;;
68608;SDS011;55581;46.718;7.690;2023-04-25T05:16:15;5.32;;;0.90;;
68608;SDS011;55581;46.718;7.690;2023-04-25T05:18:40;3.77;;;0.90;;
68608;SDS011;55581;46.718;7.690;2023-04-25T05:21:06;4.15;;;0.82;;
68608;SDS011;55581;46.718;7.690;2023-04-25T05:23:33;5.43;;;0.80;;
68608;SDS011;55581;46.718;7.690;2023-04-25T05:25:59;3.28;;;0.45;;
68608;SDS011;55581;46.718;7.690;2023-04-25T05:28:28;2.63;;;0.50;;
68608;SDS011;55581;46.718;7.690;2023-04-25T05:30:53;3.55;;;0.60;;
68608;SDS011;55581;46.718;7.690;2023-04-25T05:33:19;3.60;;;0.50;;
68608;SDS011;55581;46.718;7.690;2023-04-25T05:35:44;3.13;;;0.60;;
68608;SDS011;55581;46.718;7.690;2023-04-25T05:38:10;4.32;;;0.50;;
68608;SDS011;55581;46.718;7.690;2023-04-25T05:40:35;5.00;;;0.80;;
68608;SDS011;55581;46.718;7.690;2023-04-25T05:43:01;4.00;;;0.80;;
68608;SDS011;55581;46.718;7.690;2023-04-25T05:45:26;6.93;;;1.48;;
68608;SDS011;55581;46.718;7.690;2023-04-25T05:47:52;2.30;;;0.43;;
68608;SDS011;55581;46.718;7.690;2023-04-25T05:50:19;3.33;;;0.75;;
68608;SDS011;55581;46.718;7.690;2023-04-25T05:52:45;3.97;;;0.90;;
68608;SDS011;55581;46.718;7.690;2023-04-25T05:55:10;3.80;;;0.60;;
68608;SDS011;55581;46.718;7.690;2023-04-25T05:57:38;3.00;;;0.80;;
68608;SDS011;55581;46.718;7.690;2023-04-25T06:00:09;4.07;;;1.02;;
68608;SDS011;55581;46.718;7.690;2023-04-25T06:02:35;2.10;;;0.50;;
68608;SDS011;55581;46.718;7.690;2023-04-25T06:05:00;2.27;;;0.40;;
68608;SDS011;55581;46.718;7.690;2023-04-25T06:07:28;2.17;;;0.38;;
68608;SDS011;55581;46.718;7.690;2023-04-25T06:09:57;4.20;;;0.70;;
68608;SDS011;55581;46.718;7.690;2023-04-25T06:12:23;3.23;;;0.70;;
68608;SDS011;55581;46.718;7.690;2023-04-25T06:14:48;3.35;;;0.60;;
68608;SDS011;55581;46.718;7.690;2023-04-25T06:17:16;2.50;;;0.63;;
68608;SDS011;55581;46.718;7.690;2023-04-25T06:19:44;3.28;;;0.50;;
68608;SDS011;55581;46.718;7.690;2023-04-25T06:22:15;5.32;;;0.60;;
68608;SDS011;55581;46.718;7.690;2023-04-25T06:24:42;2.35;;;0.50;;
68608;SDS011;55581;46.718;7.690;2023-04-25T06:27:08;2.63;;;0.40;;
68608;SDS011;55581;46.718;7.690;2023-04-25T06:29:33;2.10;;;0.40;;
68608;SDS011;55581;46.718;7.690;2023-04-25T06:31:59;2.80;;;0.67;;
68608;SDS011;55581;46.718;7.690;2023-04-25T06:34:24;3.37;;;1.00;;
68608;SDS011;55581;46.718;7.690;2023-04-25T06:36:52;3.53;;;0.60;;
68608;SDS011;55581;46.718;7.690;2023-04-25T06:39:17;4.00;;;0.80;;
68608;SDS011;55581;46.718;7.690;2023-04-25T06:41:44;5.20;;;0.80;;
68608;SDS011;55581;46.718;7.690;2023-04-25T06:44:09;3.83;;;0.90;;
68608;SDS011;55581;46.718;7.690;2023-04-25T06:46:34;4.53;;;1.00;;
68608;SDS011;55581;46.718;7.690;2023-04-25T06:49:01;3.63;;;1.00;;
68608;SDS011;55581;46.718;7.690;2023-04-25T06:51:26;4.10;;;0.82;;
68608;SDS011;55581;46.718;7.690;2023-04-25T06:53:54;3.80;;;1.83;;
68608;SDS011;55581;46.718;7.690;2023-04-25T06:56:19;3.75;;;0.90;;
68608;SDS011;55581;46.718;7.690;2023-04-25T06:58:48;2.23;;;0.50;;
68608;SDS011;55581;46.718;7.690;2023-04-25T07:01:14;3.00;;;0.50;;
68608;SDS011;55581;46.718;7.690;2023-04-25T07:03:41;3.22;;;0.68;;
68608;SDS011;55581;46.718;7.690;2023-04-25T07:06:06;3.03;;;0.70;;
68608;SDS011;55581;46.718;7.690;2023-04-25T07:08:32;3.17;;;0.60;;
68608;SDS011;55581;46.718;7.690;2023-04-25T07:10:57;3.50;;;0.60;;
68608;SDS011;55581;46.718;7.690;2023-04-25T07:13:23;3.63;;;0.60;;
68608;SDS011;55581;46.718;7.690;2023-04-25T07:15:48;3.40;;;0.60;;
68608;SDS011;55581;46.718;7.690;2023-04-25T07:18:14;3.33;;;0.80;;
68608;SDS011;55581;46.718;7.690;2023-04-25T07:20:40;3.55;;;0.57;;
68608;SDS011;55581;46.718;7.690;2023-04-25T07:23:05;3.13;;;0.80;;
68608;SDS011;55581;46.718;7.690;2023-04-25T07:25:33;3.70;;;0.80;;
68608;SDS011;55581;46.718;7.690;2023-04-25T07:28:00;4.13;;;0.80;;
68608;SDS011;55581;46.718;7.690;2023-04-25T07:30:26;3.60;;;0.80;;
68608;SDS011;55581;46.718;7.690;2023-04-25T07:32:51;2.53;;;0.67;;
68608;SDS011;55581;46.718;7.690;2023-04-25T07:35:17;2.27;;;0.60;;
68608;SDS011;55581;46.718;7.690;2023-04-25T07:37:42;3.30;;;0.80;;
68608;SDS011;55581;46.718;7.690;2023-04-25T07:40:08;5.17;;;0.77;;
68608;SDS011;55581;46.718;7.690;2023-04-25T07:42:34;3.58;;;0.57;;
68608;SDS011;55581;46.718;7.690;2023-04-25T07:45:00;3.10;;;0.43;;
68608;SDS011;55581;46.718;7.690;2023-04-25T07:47:26;2.50;;;0.50;;
68608;SDS011;55581;46.718;7.690;2023-04-25T07:49:54;3.13;;;0.60;;
68608;SDS011;55581;46.718;7.690;2023-04-25T07:52:19;3.08;;;0.77;;
68608;SDS011;55581;46.718;7.690;2023-04-25T07:54:45;3.35;;;0.50;;
68608;SDS011;55581;46.718;7.690;2023-04-25T07:57:12;3.63;;;0.90;;
68608;SDS011;55581;46.718;7.690;2023-04-25T07:59:41;2.20;;;0.40;;
68608;SDS011;55581;46.718;7.690;2023-04-25T08:02:07;3.37;;;0.50;;
68608;SDS011;55581;46.718;7.690;2023-04-25T08:04:32;3.45;;;0.63;;
68608;SDS011;55581;46.718;7.690;2023-04-25T08:06:58;2.53;;;0.70;;
68608;SDS011;55581;46.718;7.690;2023-04-25T08:09:25;3.28;;;0.82;;
68608;SDS011;55581;46.718;7.690;2023-04-25T08:11:51;2.27;;;0.43;;
68608;SDS011;55581;46.718;7.690;2023-04-25T08:14:16;2.83;;;0.50;;
68608;SDS011;55581;46.718;7.690;2023-04-25T08:16:44;2.20;;;0.40;;
68608;SDS011;55581;46.718;7.690;2023-04-25T08:19:10;5.13;;;0.57;;
68608;SDS011;55581;46.718;7.690;2023-04-25T08:21:38;2.38;;;0.50;;
68608;SDS011;55581;46.718;7.690;2023-04-25T08:24:06;2.13;;;0.60;;
68608;SDS011;55581;46.718;7.690;2023-04-25T08:26:33;2.37;;;0.50;;
68608;SDS011;55581;46.718;7.690;2023-04-25T08:28:59;2.80;;;0.63;;
68608;SDS011;55581;46.718;7.690;2023-04-25T08:31:27;3.47;;;0.57;;
68608;SDS011;55581;46.718;7.690;2023-04-25T08:33:52;2.73;;;0.50;;
68608;SDS011;55581;46.718;7.690;2023-04-25T08:36:18;2.73;;;0.43;;
68608;SDS011;55581;46.718;7.690;2023-04-25T08:38:43;3.03;;;0.40;;
68608;SDS011;55581;46.718;7.690;2023-04-25T08:41:09;4.33;;;0.50;;
68608;SDS011;55581;46.718;7.690;2023-04-25T08:43:36;2.25;;;0.60;;
68608;SDS011;55581;46.718;7.690;2023-04-25T08:46:02;2.15;;;0.40;;
68608;SDS011;55581;46.718;7.690;2023-04-25T08:48:28;2.97;;;0.40;;
68608;SDS011;55581;46.718;7.690;2023-04-25T08:50:57;2.47;;;0.43;;
68608;SDS011;55581;46.718;7.690;2023-04-25T08:53:26;2.10;;;0.50;;
68608;SDS011;55581;46.718;7.690;2023-04-25T08:55:55;2.03;;;0.40;;
68608;SDS011;55581;46.718;7.690;2023-04-25T08:58:22;2.92;;;0.82;;
68608;SDS011;55581;46.718;7.690;2023-04-25T09:00:48;2.70;;;0.83;;
68608;SDS011;55581;46.718;7.690;2023-04-25T09:03:14;2.95;;;0.70;;
68608;SDS011;55581;46.718;7.690;2023-04-25T09:05:41;3.70;;;0.60;;
68608;SDS011;55581;46.718;7.690;2023-04-25T09:08:06;2.22;;;0.60;;
68608;SDS011;55581;46.718;7.690;2023-04-25T09:10:32;2.10;;;0.40;;
68608;SDS011;55581;46.718;7.690;2023-04-25T09:15:52;4.13;;;0.80;;
68608;SDS011;55581;46.718;7.690;2023-04-25T09:18:22;3.15;;;0.40;;
68608;SDS011;55581;46.718;7.690;2023-04-25T09:20:53;3.03;;;0.53;;
68608;SDS011;55581;46.718;7.690;2023-04-25T09:23:20;2.50;;;0.57;;
68608;SDS011;55581;46.718;7.690;2023-04-25T09:25:52;3.53;;;1.27;;
68608;SDS011;55581;46.718;7.690;2023-04-25T09:28:25;2.60;;;0.40;;
68608;SDS011;55581;46.718;7.690;2023-04-25T09:30:56;3.25;;;0.75;;
68608;SDS011;55581;46.718;7.690;2023-04-25T09:33:28;3.60;;;0.70;;
68608;SDS011;55581;46.718;7.690;2023-04-25T09:36:01;3.72;;;0.73;;
68608;SDS011;55581;46.718;7.690;2023-04-25T09:38:38;3.28;;;0.65;;
68608;SDS011;55581;46.718;7.690;2023-04-25T09:41:11;3.88;;;0.75;;
68608;SDS011;55581;46.718;7.690;2023-04-25T09:43:37;4.53;;;0.80;;
68608;SDS011;55581;46.718;7.690;2023-04-25T09:46:04;5.20;;;0.80;;
68608;SDS011;55581;46.718;7.690;2023-04-25T09:48:38;3.63;;;0.75;;
68608;SDS011;55581;46.718;7.690;2023-04-25T09:51:11;3.80;;;0.70;;
68608;SDS011;55581;46.718;7.690;2023-04-25T09:53:42;5.53;;;0.90;;
68608;SDS011;55581;46.718;7.690;2023-04-25T09:56:09;2.38;;;0.50;;
68608;SDS011;55581;46.718;7.690;2023-04-25T09:58:36;1.75;;;0.20;;
68608;SDS011;55581;46.718;7.690;2023-04-25T10:01:04;1.63;;;0.20;;
68608;SDS011;55581;46.718;7.690;2023-04-25T10:03:31;1.53;;;0.10;;
68608;SDS011;55581;46.718;7.690;2023-04-25T10:06:02;2.20;;;0.60;;
68608;SDS011;55581;46.718;7.690;2023-04-25T10:08:32;1.08;;;0.10;;
68608;SDS011;55581;46.718;7.690;2023-04-25T10:11:00;5.95;;;0.30;;
68608;SDS011;55581;46.718;7.690;2023-04-25T10:13:28;0.77;;;0.10;;
68608;SDS011;55581;46.718;7.690;2023-04-25T10:15:55;2.73;;;0.10;;
68608;SDS011;55581;46.718;7.690;2023-04-25T10:18:23;0.90;;;0.10;;
68608;SDS011;55581;46.718;7.690;2023-04-25T10:20:50;0.75;;;0.10;;
68608;SDS011;55581;46.718;7.690;2023-04-25T10:23:15;0.80;;;0.10;;
68608;SDS011;55581;46.718;7.690;2023-04-25T10:25:42;1.08;;;0.10;;
68608;SDS011;55581;46.718;7.690;2023-04-25T10:28:08;1.20;;;0.20;;
68608;SDS011;55581;46.718;7.690;2023-04-25T10:30:33;1.00;;;0.10;;
68608;SDS011;55581;46.718;7.690;2023-04-25T10:32:59;2.80;;;0.10;;
68608;SDS011;55581;46.718;7.690;2023-04-25T10:38:10;1.13;;;0.10;;
68608;SDS011;55581;46.718;7.690;2023-04-25T10:40:37;1.45;;;0.20;;
68608;SDS011;55581;46.718;7.690;2023-04-25T10:45:57;0.80;;;0.10;;
68608;SDS011;55581;46.718;7.690;2023-04-25T10:48:33;1.40;;;0.13;;
68608;SDS011;55581;46.718;7.690;2023-04-25T10:51:12;0.90;;;0.10;;
68608;SDS011;55581;46.718;7.690;2023-04-25T10:53:43;2.53;;;0.20;;
68608;SDS011;55581;46.718;7.690;2023-04-25T10:59:31;0.65;;;0.10;;
68608;SDS011;55581;46.718;7.690;2023-04-25T11:01:52;0.75;;;0.10;;
68608;SDS011;55581;46.718;7.690;2023-04-25T11:06:55;0.90;;;0.20;;
68608;SDS011;55581;46.718;7.690;2023-04-25T11:09:23;0.95;;;0.30;;
68608;SDS011;55581;46.718;7.690;2023-04-25T11:11:55;0.90;;;0.10;;
68608;SDS011;55581;46.718;7.690;2023-04-25T11:14:25;2.63;;;0.40;;
68608;SDS011;55581;46.718;7.690;2023-04-25T11:16:53;2.10;;;0.10;;
68608;SDS011;55581;46.718;7.690;2023-04-25T11:19:22;2.97;;;0.30;;
68608;SDS011;55581;46.718;7.690;2023-04-25T11:21:48;2.08;;;0.30;;
68608;SDS011;55581;46.718;7.690;2023-04-25T11:24:15;2.40;;;0.30;;
68608;SDS011;55581;46.718;7.690;2023-04-25T11:26:42;2.33;;;0.38;;
68608;SDS011;55581;46.718;7.690;2023-04-25T11:29:08;1.75;;;0.35;;
68608;SDS011;55581;46.718;7.690;2023-04-25T11:31:33;2.67;;;0.50;;
68608;SDS011;55581;46.718;7.690;2023-04-25T11:34:01;2.92;;;0.50;;
68608;SDS011;55581;46.718;7.690;2023-04-25T11:36:27;2.15;;;0.50;;
68608;SDS011;55581;46.718;7.690;2023-04-25T11:38:55;1.80;;;0.47;;
68608;SDS011;55581;46.718;7.690;2023-04-25T11:41:21;2.07;;;0.60;;
68608;SDS011;55581;46.718;7.690;2023-04-25T11:43:50;3.10;;;0.50;;
68608;SDS011;55581;46.718;7.690;2023-04-25T11:46:17;4.20;;;0.60;;
68608;SDS011;55581;46.718;7.690;2023-04-25T11:48:44;4.03;;;0.77;;
68608;SDS011;55581;46.718;7.690;2023-04-25T11:51:09;2.03;;;0.38;;
68608;SDS011;55581;46.718;7.690;2023-04-25T11:53:35;1.83;;;0.30;;
68608;SDS011;55581;46.718;7.690;2023-04-25T11:56:08;1.77;;;0.40;;
68608;SDS011;55581;46.718;7.690;2023-04-25T11:58:53;3.85;;;0.73;;
68608;SDS011;55581;46.718;7.690;2023-04-25T12:01:29;2.85;;;0.75;;
68608;SDS011;55581;46.718;7.690;2023-04-25T12:03:56;2.83;;;0.40;;
68608;SDS011;55581;46.718;7.690;2023-04-25T12:06:25;2.38;;;0.52;;
68608;SDS011;55581;46.718;7.690;2023-04-25T12:09:04;4.18;;;0.50;;
68608;SDS011;55581;46.718;7.690;2023-04-25T12:11:32;2.75;;;0.52;;
68608;SDS011;55581;46.718;7.690;2023-04-25T12:14:05;3.15;;;0.50;;
68608;SDS011;55581;46.718;7.690;2023-04-25T12:16:41;2.57;;;0.40;;
68608;SDS011;55581;46.718;7.690;2023-04-25T12:19:07;2.40;;;0.60;;
68608;SDS011;55581;46.718;7.690;2023-04-25T12:21:32;3.10;;;0.63;;
68608;SDS011;55581;46.718;7.690;2023-04-25T12:27:07;2.70;;;0.30;;
68608;SDS011;55581;46.718;7.690;2023-04-25T12:29:33;1.93;;;0.30;;
68608;SDS011;55581;46.718;7.690;2023-04-25T12:31:59;1.80;;;0.77;;
68608;SDS011;55581;46.718;7.690;2023-04-25T12:34:27;3.08;;;0.60;;
68608;SDS011;55581;46.718;7.690;2023-04-25T12:36:53;2.03;;;0.32;;
68608;SDS011;55581;46.718;7.690;2023-04-25T12:39:19;2.58;;;0.47;;
68608;SDS011;55581;46.718;7.690;2023-04-25T12:41:46;3.37;;;0.60;;
68608;SDS011;55581;46.718;7.690;2023-04-25T12:44:12;2.63;;;0.60;;
68608;SDS011;55581;46.718;7.690;2023-04-25T12:46:38;3.15;;;0.50;;
68608;SDS011;55581;46.718;7.690;2023-04-25T12:49:05;2.22;;;0.40;;
68608;SDS011;55581;46.718;7.690;2023-04-25T12:51:32;2.33;;;0.43;;
68608;SDS011;55581;46.718;7.690;2023-04-25T12:53:58;2.58;;;0.52;;
68608;SDS011;55581;46.718;7.690;2023-04-25T12:56:30;1.40;;;0.20;;
68608;SDS011;55581;46.718;7.690;2023-04-25T12:58:56;1.73;;;0.40;;
68608;SDS011;55581;46.718;7.690;2023-04-25T13:01:22;2.10;;;0.45;;
68608;SDS011;55581;46.718;7.690;2023-04-25T13:03:48;1.83;;;0.40;;
68608;SDS011;55581;46.718;7.690;2023-04-25T13:06:14;2.00;;;0.40;;
68608;SDS011;55581;46.718;7.690;2023-04-25T13:08:42;1.48;;;0.40;;
68608;SDS011;55581;46.718;7.690;2023-04-25T13:11:08;3.20;;;0.30;;
68608;SDS011;55581;46.718;7.690;2023-04-25T13:13:33;1.95;;;0.30;;
68608;SDS011;55581;46.718;7.690;2023-04-25T13:16:03;1.52;;;0.22;;
68608;SDS011;55581;46.718;7.690;2023-04-25T13:18:29;3.25;;;0.30;;
68608;SDS011;55581;46.718;7.690;2023-04-25T13:20:55;1.83;;;0.30;;
68608;SDS011;55581;46.718;7.690;2023-04-25T13:23:21;1.40;;;0.20;;
68608;SDS011;55581;46.718;7.690;2023-04-25T13:25:47;1.67;;;0.30;;
68608;SDS011;55581;46.718;7.690;2023-04-25T13:28:13;2.03;;;0.43;;
68608;SDS011;55581;46.718;7.690;2023-04-25T13:30:42;2.28;;;0.30;;
68608;SDS011;55581;46.718;7.690;2023-04-25T13:33:07;3.22;;;0.30;;
68608;SDS011;55581;46.718;7.690;2023-04-25T13:35:34;1.90;;;0.30;;
68608;SDS011;55581;46.718;7.690;2023-04-25T13:38:01;1.35;;;0.20;;
68608;SDS011;55581;46.718;7.690;2023-04-25T13:40:27;1.85;;;0.28;;
68608;SDS011;55581;46.718;7.690;2023-04-25T13:42:52;1.83;;;0.30;;
68608;SDS011;55581;46.718;7.690;2023-04-25T13:45:18;2.15;;;0.35;;
68608;SDS011;55581;46.718;7.690;2023-04-25T13:47:44;1.30;;;0.20;;
68608;SDS011;55581;46.718;7.690;2023-04-25T13:50:10;1.10;;;0.20;;
68608;SDS011;55581;46.718;7.690;2023-04-25T13:52:35;1.53;;;0.30;;
68608;SDS011;55581;46.718;7.690;2023-04-25T13:55:01;1.20;;;0.20;;
68608;SDS011;55581;46.718;7.690;2023-04-25T13:57:28;1.77;;;0.28;;
68608;SDS011;55581;46.718;7.690;2023-04-25T13:59:55;0.98;;;0.20;;
68608;SDS011;55581;46.718;7.690;2023-04-25T14:02:21;4.80;;;1.00;;
68608;SDS011;55581;46.718;7.690;2023-04-25T14:04:47;2.83;;;0.45;;
68608;SDS011;55581;46.718;7.690;2023-04-25T14:07:13;0.93;;;0.10;;
68608;SDS011;55581;46.718;7.690;2023-04-25T14:09:41;1.42;;;0.20;;
68608;SDS011;55581;46.718;7.690;2023-04-25T14:12:07;1.33;;;0.20;;
68608;SDS011;55581;46.718;7.690;2023-04-25T14:14:34;1.38;;;0.22;;
68608;SDS011;55581;46.718;7.690;2023-04-25T14:17:00;1.10;;;0.20;;
68608;SDS011;55581;46.718;7.690;2023-04-25T14:19:28;4.93;;;1.38;;
68608;SDS011;55581;46.718;7.690;2023-04-25T14:21:54;2.67;;;0.40;;
68608;SDS011;55581;46.718;7.690;2023-04-25T14:24:24;2.13;;;0.20;;
68608;SDS011;55581;46.718;7.690;2023-04-25T14:26:50;1.42;;;0.20;;
68608;SDS011;55581;46.718;7.690;2023-04-25T14:29:15;1.57;;;0.20;;
68608;SDS011;55581;46.718;7.690;2023-04-25T14:31:41;1.63;;;0.17;;
68608;SDS011;55581;46.718;7.690;2023-04-25T14:34:06;1.63;;;0.20;;
68608;SDS011;55581;46.718;7.690;2023-04-25T14:36:32;1.20;;;0.10;;
68608;SDS011;55581;46.718;7.690;2023-04-25T14:38:58;2.20;;;0.30;;
68608;SDS011;55581;46.718;7.690;2023-04-25T14:41:24;1.88;;;0.30;;
68608;SDS011;55581;46.718;7.690;2023-04-25T14:43:50;1.87;;;0.20;;
68608;SDS011;55581;46.718;7.690;2023-04-25T14:46:16;1.70;;;0.40;;
68608;SDS011;55581;46.718;7.690;2023-04-25T14:48:46;1.65;;;0.25;;
68608;SDS011;55581;46.718;7.690;2023-04-25T14:51:12;1.87;;;0.40;;
68608;SDS011;55581;46.718;7.690;2023-04-25T14:53:37;1.83;;;0.30;;
68608;SDS011;55581;46.718;7.690;2023-04-25T14:56:03;2.43;;;0.60;;
68608;SDS011;55581;46.718;7.690;2023-04-25T14:58:31;1.97;;;0.33;;
68608;SDS011;55581;46.718;7.690;2023-04-25T15:00:56;1.10;;;0.20;;
68608;SDS011;55581;46.718;7.690;2023-04-25T15:03:21;1.20;;;0.20;;